Time,TemperatureF,DewpointF,PressureIn,WindDirection,WindDirectionDegrees,WindSpeedMPH,WindSpeedGustMPH,Humidity,HourlyPrecipIn,Conditions,Clouds,dailyrainin,SolarRadiationWatts/m^2,SoftwareType,DateUTC
2013-01-07 00:01:00,52.4,41.4,30.27,East,93,3.0,5.0,66,0.00,,,0.00,0,Wunderground v.1.15,2013-01-06 23:01:00,
2013-01-07 00:06:00,52.5,40.7,30.27,East,93,4.0,6.0,64,0.00,,,0.00,0,Wunderground v.1.15,2013-01-06 23:06:00,
2013-01-07 00:12:00,52.0,40.2,30.27,ESE,106,4.0,7.0,64,0.00,,,0.00,0,Wunderground v.1.15,2013-01-06 23:12:00,
2013-01-07 00:20:00,51.5,40.9,30.27,ESE,106,3.0,3.0,67,0.00,,,0.00,0,Wunderground v.1.15,2013-01-06 23:20:00,
2013-01-07 00:26:00,51.4,41.6,30.27,ESE,109,3.0,5.0,69,0.00,,,0.00,0,Wunderground v.1.15,2013-01-06 23:26:00,
2013-01-07 00:32:00,51.5,42.4,30.27,ESE,110,3.0,3.0,71,0.00,,,0.00,0,Wunderground v.1.15,2013-01-06 23:32:00,
2013-01-07 00:39:00,51.4,41.9,30.27,ESE,113,3.0,5.0,70,0.00,,,0.00,0,Wunderground v.1.15,2013-01-06 23:39:00,
2013-01-07 00:44:00,51.3,41.8,30.27,SSE,149,4.0,5.0,70,0.00,,,0.00,0,Wunderground v.1.15,2013-01-06 23:44:00,
2013-01-07 00:50:00,50.9,41.5,30.26,SSE,157,5.0,6.0,70,0.00,,,0.00,0,Wunderground v.1.15,2013-01-06 23:50:00,
2013-01-07 00:56:00,50.3,41.3,30.26,SSE,161,4.0,6.0,71,0.00,,,0.00,0,Wunderground v.1.15,2013-01-06 23:56:00,
2013-01-07 01:02:00,50.0,41.3,30.26,SSW,204,5.0,6.0,72,0.00,,,0.00,0,Wunderground v.1.15,2013-01-07 00:02:00,
2013-01-07 01:09:00,49.7,41.4,30.26,SSW,203,5.0,6.0,73,0.00,,,0.00,0,Wunderground v.1.15,2013-01-07 00:09:00,
2013-01-07 01:14:00,49.6,40.9,30.26,SSW,209,6.0,7.0,72,0.00,,,0.00,0,Wunderground v.1.15,2013-01-07 00:14:00,
2013-01-07 01:20:00,49.1,40.8,30.26,SSW,213,6.0,7.0,73,0.00,,,0.00,0,Wunderground v.1.15,2013-01-07 00:20:00,
2013-01-07 01:26:00,49.1,41.2,30.26,SW,225,7.0,8.0,74,0.00,,,0.00,0,Wunderground v.1.15,2013-01-07 00:26:00,
2013-01-07 01:32:00,49.1,41.2,30.26,SW,232,8.0,8.0,74,0.00,,,0.00,0,Wunderground v.1.15,2013-01-07 00:32:00,
2013-01-07 01:39:00,49.1,41.5,30.25,WSW,240,8.0,8.0,75,0.00,,,0.00,0,Wunderground v.1.15,2013-01-07 00:39:00,
2013-01-07 01:46:00,48.9,41.3,30.25,WSW,240,8.0,9.0,75,0.00,,,0.00,0,Wunderground v.1.15,2013-01-07 00:46:00,
2013-01-07 01:52:00,49.0,41.4,30.25,WSW,242,7.0,8.0,75,0.00,,,0.00,0,Wunderground v.1.15,2013-01-07 00:52:00,
2013-01-07 01:58:00,48.7,41.1,30.25,WSW,242,6.0,8.0,75,0.00,,,0.00,0,Wunderground v.1.15,2013-01-07 00:58:00,
2013-01-07 02:06:00,48.5,41.3,30.25,WSW,242,5.0,7.0,76,0.00,,,0.00,0,Wunderground v.1.15,2013-01-07 01:06:00,
2013-01-07 02:12:00,48.3,41.1,30.25,WSW,242,6.0,6.0,76,0.00,,,0.00,0,Wunderground v.1.15,2013-01-07 01:12:00,
2013-01-07 02:18:00,48.1,40.9,30.25,WSW,242,5.0,6.0,76,0.00,,,0.00,0,Wunderground v.1.15,2013-01-07 01:18:00,
2013-01-07 02:26:00,47.8,40.6,30.25,WSW,242,3.0,4.0,76,0.00,,,0.00,0,Wunderground v.1.15,2013-01-07 01:26:00,
2013-01-07 02:32:00,48.0,40.8,30.25,WSW,242,3.0,3.0,76,0.00,,,0.00,0,Wunderground v.1.15,2013-01-07 01:32:00,
2013-01-07 02:38:00,48.1,40.9,30.25,WSW,242,1.0,3.0,76,0.00,,,0.00,0,Wunderground v.1.15,2013-01-07 01:38:00,
2013-01-07 02:44:00,48.2,40.6,30.25,WSW,242,0.0,0.0,75,0.00,,,0.00,0,Wunderground v.1.15,2013-01-07 01:44:00,
2013-01-07 02:50:00,48.3,40.7,30.24,WSW,242,1.0,2.0,75,0.00,,,0.00,0,Wunderground v.1.15,2013-01-07 01:50:00,
2013-01-07 02:56:00,48.8,41.2,30.24,WSW,242,1.0,2.0,75,0.00,,,0.00,0,Wunderground v.1.15,2013-01-07 01:56:00,
2013-01-07 03:02:00,48.5,40.2,30.24,WSW,242,3.0,7.0,73,0.00,,,0.00,0,Wunderground v.1.15,2013-01-07 02:02:00,
2013-01-07 03:10:00,47.0,39.8,30.24,WSW,242,6.0,7.0,76,0.00,,,0.00,0,Wunderground v.1.15,2013-01-07 02:10:00,
2013-01-07 03:16:00,47.9,40.7,30.24,WSW,242,7.0,7.0,76,0.00,,,0.00,0,Wunderground v.1.15,2013-01-07 02:16:00,
2013-01-07 03:22:00,48.6,40.7,30.24,WSW,242,7.0,7.0,74,0.00,,,0.00,0,Wunderground v.1.15,2013-01-07 02:22:00,
2013-01-07 03:28:00,48.9,40.3,30.23,WSW,242,5.0,7.0,72,0.00,,,0.00,0,Wunderground v.1.15,2013-01-07 02:28:00,
2013-01-07 03:36:00,48.7,39.4,30.23,WSW,242,4.0,7.0,70,0.00,,,0.00,0,Wunderground v.1.15,2013-01-07 02:36:00,
2013-01-07 03:42:00,49.0,39.3,30.23,WSW,242,4.0,5.0,69,0.00,,,0.00,0,Wunderground v.1.15,2013-01-07 02:42:00,
2013-01-07 03:48:00,50.0,38.7,30.23,WSW,242,2.0,6.0,65,0.00,,,0.00,0,Wunderground v.1.15,2013-01-07 02:48:00,
2013-01-07 03:56:00,50.0,38.7,30.23,WSW,242,1.0,3.0,65,0.00,,,0.00,0,Wunderground v.1.15,2013-01-07 02:56:00,
2013-01-07 04:02:00,49.6,39.1,30.23,WSW,242,1.0,1.0,67,0.00,,,0.00,0,Wunderground v.1.15,2013-01-07 03:02:00,
2013-01-07 04:10:00,49.2,38.7,30.23,WSW,242,0.0,2.0,67,0.00,,,0.00,0,Wunderground v.1.15,2013-01-07 03:10:00,
2013-01-07 04:16:00,49.6,37.5,30.22,WSW,242,0.0,2.0,63,0.00,,,0.00,0,Wunderground v.1.15,2013-01-07 03:16:00,
2013-01-07 04:22:00,49.9,37.4,30.22,WSW,242,0.0,2.0,62,0.00,,,0.00,0,Wunderground v.1.15,2013-01-07 03:22:00,
2013-01-07 04:28:00,50.2,37.3,30.22,WSW,242,0.0,2.0,61,0.00,,,0.00,0,Wunderground v.1.15,2013-01-07 03:28:00,
2013-01-07 04:34:00,50.1,38.0,30.22,WSW,242,0.0,0.0,63,0.00,,,0.00,0,Wunderground v.1.15,2013-01-07 03:34:00,
2013-01-07 04:40:00,49.8,38.1,30.22,WSW,242,1.0,1.0,64,0.00,,,0.00,0,Wunderground v.1.15,2013-01-07 03:40:00,
2013-01-07 04:46:00,49.5,38.2,30.22,WSW,242,1.0,1.0,65,0.00,,,0.00,0,Wunderground v.1.15,2013-01-07 03:46:00,
2013-01-07 04:52:00,49.2,37.9,30.22,WSW,242,0.0,0.0,65,0.00,,,0.00,0,Wunderground v.1.15,2013-01-07 03:52:00,
2013-01-07 04:59:00,49.1,36.6,30.22,WSW,242,0.0,0.0,62,0.00,,,0.00,0,Wunderground v.1.15,2013-01-07 03:59:00,
2013-01-07 05:04:00,49.3,36.0,30.21,WSW,242,0.0,0.0,60,0.00,,,0.00,0,Wunderground v.1.15,2013-01-07 04:04:00,
2013-01-07 05:10:00,49.5,36.2,30.21,WSW,242,0.0,0.0,60,0.00,,,0.00,0,Wunderground v.1.15,2013-01-07 04:10:00,
2013-01-07 05:16:00,49.7,36.4,30.21,WSW,242,0.0,0.0,60,0.00,,,0.00,0,Wunderground v.1.15,2013-01-07 04:16:00,
2013-01-07 05:22:00,49.8,36.0,30.21,WSW,242,0.0,0.0,59,0.00,,,0.00,0,Wunderground v.1.15,2013-01-07 04:22:00,
2013-01-07 05:28:00,50.4,35.7,30.21,WSW,242,0.0,0.0,57,0.00,,,0.00,0,Wunderground v.1.15,2013-01-07 04:28:00,
2013-01-07 05:36:00,50.5,36.3,30.21,WSW,242,1.0,2.0,58,0.00,,,0.00,0,Wunderground v.1.15,2013-01-07 04:36:00,
2013-01-07 05:42:00,50.3,36.1,30.20,WSW,242,1.0,2.0,58,0.00,,,0.00,0,Wunderground v.1.15,2013-01-07 04:42:00,
2013-01-07 05:48:00,50.2,36.0,30.20,WSW,242,1.0,2.0,58,0.00,,,0.00,0,Wunderground v.1.15,2013-01-07 04:48:00,
2013-01-07 05:56:00,50.3,35.2,30.20,WSW,242,1.0,3.0,56,0.00,,,0.00,0,Wunderground v.1.15,2013-01-07 04:56:00,
2013-01-07 06:00:00,50.5,34.9,30.20,WSW,242,1.0,1.0,55,0.00,,,0.00,0,Wunderground v.1.15,2013-01-07 05:00:00,
2013-01-07 06:06:00,50.8,35.2,30.20,WSW,242,2.0,3.0,55,0.00,,,0.00,0,Wunderground v.1.15,2013-01-07 05:06:00,
2013-01-07 06:10:00,51.0,35.4,30.20,WSW,242,2.0,2.0,55,0.00,,,0.00,0,Wunderground v.1.15,2013-01-07 05:10:00,
2013-01-07 06:12:00,51.1,35.0,30.20,WSW,242,1.0,2.0,54,0.00,,,0.00,0,Wunderground v.1.15,2013-01-07 05:12:00,
2013-01-07 06:20:00,51.4,35.3,30.20,WSW,242,1.0,1.0,54,0.00,,,0.00,0,Wunderground v.1.15,2013-01-07 05:20:00,
2013-01-07 06:26:00,51.8,35.7,30.20,WSW,242,1.0,2.0,54,0.00,,,0.00,0,Wunderground v.1.15,2013-01-07 05:26:00,
2013-01-07 06:32:00,51.9,35.8,30.20,WSW,242,2.0,2.0,54,0.00,,,0.00,0,Wunderground v.1.15,2013-01-07 05:32:00,
2013-01-07 06:38:00,51.3,34.7,30.20,WSW,242,2.0,2.0,53,0.00,,,0.00,0,Wunderground v.1.15,2013-01-07 05:38:00,
2013-01-07 06:46:00,52.0,34.4,30.20,WSW,242,3.0,4.0,51,0.00,,,0.00,0,Wunderground v.1.15,2013-01-07 05:46:00,
2013-01-07 06:52:00,52.6,34.5,30.20,WSW,242,3.0,4.0,50,0.00,,,0.00,0,Wunderground v.1.15,2013-01-07 05:52:00,
2013-01-07 07:00:00,53.0,34.3,30.20,WSW,242,3.0,3.0,49,0.00,,,0.00,0,Wunderground v.1.15,2013-01-07 06:00:00,
2013-01-07 07:06:00,52.9,34.2,30.20,WSW,242,4.0,4.0,49,0.00,,,0.00,0,Wunderground v.1.15,2013-01-07 06:06:00,
2013-01-07 07:12:00,51.7,33.6,30.20,WSW,242,4.0,5.0,50,0.00,,,0.00,0,Wunderground v.1.15,2013-01-07 06:12:00,
2013-01-07 07:20:00,50.7,33.7,30.20,WSW,242,5.0,5.0,52,0.00,,,0.00,0,Wunderground v.1.15,2013-01-07 06:20:00,
2013-01-07 07:26:00,50.4,32.9,30.20,WSW,242,5.0,5.0,51,0.00,,,0.00,0,Wunderground v.1.15,2013-01-07 06:26:00,
2013-01-07 07:32:00,51.7,33.1,30.20,WSW,242,5.0,6.0,49,0.00,,,0.00,0,Wunderground v.1.15,2013-01-07 06:32:00,
2013-01-07 07:38:00,50.8,33.3,30.20,WSW,242,5.0,6.0,51,0.00,,,0.00,0,Wunderground v.1.15,2013-01-07 06:38:00,
2013-01-07 07:46:00,49.9,33.9,30.20,WSW,242,5.0,7.0,54,0.00,,,0.00,0,Wunderground v.1.15,2013-01-07 06:46:00,
2013-01-07 07:52:00,49.6,33.6,30.20,WSW,242,5.0,5.0,54,0.00,,,0.00,0,Wunderground v.1.15,2013-01-07 06:52:00,
2013-01-07 07:58:00,49.5,33.1,30.20,WSW,242,4.0,5.0,53,0.00,,,0.00,0,Wunderground v.1.15,2013-01-07 06:58:00,
2013-01-07 08:06:00,50.9,32.9,30.20,WSW,242,2.0,4.0,50,0.00,,,0.00,0,Wunderground v.1.15,2013-01-07 07:06:00,
2013-01-07 08:12:00,51.9,33.3,30.20,WSW,242,2.0,4.0,49,0.00,,,0.00,7,Wunderground v.1.15,2013-01-07 07:12:00,
2013-01-07 08:20:00,51.9,33.3,30.21,WSW,242,4.0,4.0,49,0.00,,,0.00,11,Wunderground v.1.15,2013-01-07 07:20:00,
2013-01-07 08:26:00,51.8,33.2,30.21,WSW,242,4.0,6.0,49,0.00,,,0.00,18,Wunderground v.1.15,2013-01-07 07:26:00,
2013-01-07 08:32:00,51.3,33.8,30.21,WSW,242,5.0,5.0,51,0.00,,,0.00,26,Wunderground v.1.15,2013-01-07 07:32:00,
2013-01-07 08:38:00,50.8,34.3,30.21,WSW,242,5.0,6.0,53,0.00,,,0.00,39,Wunderground v.1.15,2013-01-07 07:38:00,
2013-01-07 08:44:00,50.5,34.0,30.21,WSW,242,5.0,5.0,53,0.00,,,0.00,49,Wunderground v.1.15,2013-01-07 07:44:00,
2013-01-07 08:50:00,50.8,33.8,30.21,WSW,242,5.0,5.0,52,0.00,,,0.00,63,Wunderground v.1.15,2013-01-07 07:50:00,
2013-01-07 08:56:00,51.0,33.5,30.22,WSW,242,5.0,7.0,51,0.00,,,0.00,69,Wunderground v.1.15,2013-01-07 07:56:00,
2013-01-07 09:02:00,51.3,34.3,30.22,WSW,242,6.0,6.0,52,0.00,,,0.00,98,Wunderground v.1.15,2013-01-07 08:02:00,
2013-01-07 09:09:00,51.3,33.8,30.22,WSW,242,6.0,6.0,51,0.00,,,0.00,113,Wunderground v.1.15,2013-01-07 08:09:00,
2013-01-07 09:16:00,51.2,34.2,30.22,WSW,242,6.0,6.0,52,0.00,,,0.00,141,Wunderground v.1.15,2013-01-07 08:16:00,
2013-01-07 09:22:00,51.9,35.3,30.22,WSW,242,6.0,6.0,53,0.00,,,0.00,163,Wunderground v.1.15,2013-01-07 08:22:00,
2013-01-07 09:28:00,52.9,35.2,30.23,WSW,242,6.0,7.0,51,0.00,,,0.00,181,Wunderground v.1.15,2013-01-07 08:28:00,
2013-01-07 09:34:00,53.7,35.0,30.22,WSW,242,5.0,7.0,49,0.00,,,0.00,202,Wunderground v.1.15,2013-01-07 08:34:00,
2013-01-07 09:40:00,54.6,34.8,30.22,WSW,242,6.0,7.0,47,0.00,,,0.00,221,Wunderground v.1.15,2013-01-07 08:40:00,
2013-01-07 09:46:00,55.2,34.2,30.22,WSW,242,7.0,7.0,45,0.00,,,0.00,239,Wunderground v.1.15,2013-01-07 08:46:00,
2013-01-07 09:52:00,55.1,35.7,30.23,WSW,242,7.0,7.0,48,0.00,,,0.00,255,Wunderground v.1.15,2013-01-07 08:52:00,
2013-01-07 09:58:00,55.1,37.3,30.23,WSW,242,6.0,7.0,51,0.00,,,0.00,271,Wunderground v.1.15,2013-01-07 08:58:00,
2013-01-07 10:06:00,55.1,39.2,30.23,WSW,242,5.0,6.0,55,0.00,,,0.00,272,Wunderground v.1.15,2013-01-07 09:06:00,
2013-01-07 10:12:00,54.6,39.7,30.22,WSW,242,6.0,7.0,57,0.00,,,0.00,304,Wunderground v.1.15,2013-01-07 09:12:00,
2013-01-07 10:20:00,55.1,40.6,30.23,WSW,242,7.0,7.0,58,0.00,,,0.00,323,Wunderground v.1.15,2013-01-07 09:20:00,
2013-01-07 10:26:00,55.6,41.9,30.23,WSW,242,6.0,7.0,60,0.00,,,0.00,334,Wunderground v.1.15,2013-01-07 09:26:00,
2013-01-07 10:32:00,56.1,42.4,30.23,WSW,242,5.0,7.0,60,0.00,,,0.00,348,Wunderground v.1.15,2013-01-07 09:32:00,
2013-01-07 10:40:00,56.5,42.8,30.23,WSW,242,6.0,6.0,60,0.00,,,0.00,366,Wunderground v.1.15,2013-01-07 09:40:00,
2013-01-07 10:46:00,57.0,42.4,30.23,WSW,242,5.0,6.0,58,0.00,,,0.00,378,Wunderground v.1.15,2013-01-07 09:46:00,
2013-01-07 10:52:00,57.9,43.2,30.23,WSW,242,5.0,5.0,58,0.00,,,0.00,387,Wunderground v.1.15,2013-01-07 09:52:00,
2013-01-07 10:59:00,59.0,43.8,30.24,WSW,242,4.0,5.0,57,0.00,,,0.00,399,Wunderground v.1.15,2013-01-07 09:59:00,
2013-01-07 11:06:00,59.7,44.0,30.23,WSW,242,4.0,6.0,56,0.00,,,0.00,411,Wunderground v.1.15,2013-01-07 10:06:00,
2013-01-07 11:12:00,60.1,44.8,30.23,WSW,242,5.0,5.0,57,0.00,,,0.00,422,Wunderground v.1.15,2013-01-07 10:12:00,
2013-01-07 11:20:00,60.7,46.3,30.23,WSW,242,5.0,6.0,59,0.00,,,0.00,436,Wunderground v.1.15,2013-01-07 10:20:00,
2013-01-07 11:26:00,60.8,46.4,30.23,WSW,242,5.0,7.0,59,0.00,,,0.00,443,Wunderground v.1.15,2013-01-07 10:26:00,
2013-01-07 11:32:00,61.5,47.0,30.23,WSW,242,5.0,7.0,59,0.00,,,0.00,452,Wunderground v.1.15,2013-01-07 10:32:00,
2013-01-07 11:38:00,62.4,47.9,30.23,WSW,242,4.0,7.0,59,0.00,,,0.00,459,Wunderground v.1.15,2013-01-07 10:38:00,
2013-01-07 11:44:00,62.8,48.3,30.23,WSW,242,4.0,4.0,59,0.00,,,0.00,464,Wunderground v.1.15,2013-01-07 10:44:00,
2013-01-07 11:50:00,63.4,48.8,30.23,WSW,242,3.0,3.0,59,0.00,,,0.00,471,Wunderground v.1.15,2013-01-07 10:50:00,
2013-01-07 11:56:00,63.6,49.5,30.22,WSW,242,3.0,3.0,60,0.00,,,0.00,478,Wunderground v.1.15,2013-01-07 10:56:00,
2013-01-07 12:02:00,64.1,49.5,30.22,WSW,242,3.0,3.0,59,0.00,,,0.00,482,Wunderground v.1.15,2013-01-07 11:02:00,
2013-01-07 12:10:00,64.7,48.6,30.22,WSW,242,3.0,4.0,56,0.00,,,0.00,482,Wunderground v.1.15,2013-01-07 11:10:00,
2013-01-07 12:16:00,64.9,48.3,30.22,WSW,242,3.0,4.0,55,0.00,,,0.00,492,Wunderground v.1.15,2013-01-07 11:16:00,
2013-01-07 12:22:00,65.6,48.0,30.22,WSW,242,3.0,3.0,53,0.00,,,0.00,494,Wunderground v.1.15,2013-01-07 11:22:00,
2013-01-07 12:28:00,66.8,48.1,30.22,WSW,242,1.0,3.0,51,0.00,,,0.00,496,Wunderground v.1.15,2013-01-07 11:28:00,
2013-01-07 12:34:00,68.4,47.9,30.22,WSW,242,0.0,2.0,48,0.00,,,0.00,501,Wunderground v.1.15,2013-01-07 11:34:00,
2013-01-07 12:40:00,69.5,47.8,30.21,WSW,242,1.0,1.0,46,0.00,,,0.00,504,Wunderground v.1.15,2013-01-07 11:40:00,
2013-01-07 12:46:00,70.1,48.4,30.21,WSW,242,1.0,2.0,46,0.00,,,0.00,501,Wunderground v.1.15,2013-01-07 11:46:00,
2013-01-07 12:52:00,70.4,48.0,30.21,WSW,242,1.0,2.0,45,0.00,,,0.00,501,Wunderground v.1.15,2013-01-07 11:52:00,
2013-01-07 12:58:00,70.9,47.9,30.21,WSW,242,1.0,2.0,44,0.00,,,0.00,501,Wunderground v.1.15,2013-01-07 11:58:00,
2013-01-07 13:06:00,71.3,50.6,30.21,SW,229,1.0,5.0,48,0.00,,,0.00,494,Wunderground v.1.15,2013-01-07 12:06:00,
2013-01-07 13:12:00,71.7,52.1,30.21,SW,227,2.0,3.0,50,0.00,,,0.00,494,Wunderground v.1.15,2013-01-07 12:12:00,
2013-01-07 13:20:00,71.5,51.3,30.20,SSW,193,3.0,4.0,49,0.00,,,0.00,494,Wunderground v.1.15,2013-01-07 12:20:00,
2013-01-07 13:26:00,71.3,50.0,30.20,SSW,193,3.0,4.0,47,0.00,,,0.00,489,Wunderground v.1.15,2013-01-07 12:26:00,
2013-01-07 13:32:00,71.5,49.0,30.20,SSW,192,2.0,2.0,45,0.00,,,0.00,487,Wunderground v.1.15,2013-01-07 12:32:00,
2013-01-07 13:38:00,72.1,49.6,30.20,SSW,193,1.0,2.0,45,0.00,,,0.00,485,Wunderground v.1.15,2013-01-07 12:38:00,
2013-01-07 13:46:00,72.6,48.8,30.20,SSW,193,2.0,3.0,43,0.00,,,0.00,476,Wunderground v.1.15,2013-01-07 12:46:00,
2013-01-07 13:52:00,72.8,47.7,30.19,SSW,192,2.0,3.0,41,0.00,,,0.00,469,Wunderground v.1.15,2013-01-07 12:52:00,
2013-01-07 13:59:00,73.1,46.7,30.19,SSW,192,1.0,3.0,39,0.00,,,0.00,464,Wunderground v.1.15,2013-01-07 12:59:00,
2013-01-07 14:06:00,73.4,46.9,30.19,SSW,192,0.0,1.0,39,0.00,,,0.00,455,Wunderground v.1.15,2013-01-07 13:06:00,
2013-01-07 14:12:00,73.7,48.5,30.19,SSW,193,1.0,1.0,41,0.00,,,0.00,448,Wunderground v.1.15,2013-01-07 13:12:00,
2013-01-07 14:18:00,74.1,48.2,30.19,SSW,193,1.0,1.0,40,0.00,,,0.00,441,Wunderground v.1.15,2013-01-07 13:18:00,
2013-01-07 14:24:00,74.3,47.7,30.18,SSW,193,1.0,2.0,39,0.00,,,0.00,432,Wunderground v.1.15,2013-01-07 13:24:00,
2013-01-07 14:30:00,74.3,48.4,30.19,SSW,193,1.0,1.0,40,0.00,,,0.00,424,Wunderground v.1.15,2013-01-07 13:30:00,
2013-01-07 14:36:00,74.5,48.6,30.19,SSW,192,0.0,1.0,40,0.00,,,0.00,413,Wunderground v.1.15,2013-01-07 13:36:00,
2013-01-07 14:42:00,74.1,48.9,30.19,SSW,193,1.0,1.0,41,0.00,,,0.00,401,Wunderground v.1.15,2013-01-07 13:42:00,
2013-01-07 14:50:00,74.2,49.6,30.18,SSW,193,0.0,0.0,42,0.00,,,0.00,388,Wunderground v.1.15,2013-01-07 13:50:00,
2013-01-07 14:56:00,74.5,49.2,30.19,SSW,192,0.0,0.0,41,0.00,,,0.00,376,Wunderground v.1.15,2013-01-07 13:56:00,
2013-01-07 15:02:00,74.5,49.2,30.19,SSW,192,0.0,1.0,41,0.00,,,0.00,366,Wunderground v.1.15,2013-01-07 14:02:00,
2013-01-07 15:09:00,74.1,48.9,30.19,SSW,192,0.0,1.0,41,0.00,,,0.00,352,Wunderground v.1.15,2013-01-07 14:09:00,
2013-01-07 15:14:00,73.9,49.4,30.19,SSW,193,1.0,3.0,42,0.00,,,0.00,339,Wunderground v.1.15,2013-01-07 14:14:00,
2013-01-07 15:20:00,74.1,49.5,30.19,SSW,193,1.0,1.0,42,0.00,,,0.00,329,Wunderground v.1.15,2013-01-07 14:20:00,
2013-01-07 15:26:00,73.9,50.0,30.19,SSW,193,2.0,3.0,43,0.00,,,0.00,315,Wunderground v.1.15,2013-01-07 14:26:00,
2013-01-07 15:32:00,73.7,49.2,30.19,SSW,192,2.0,2.0,42,0.00,,,0.00,302,Wunderground v.1.15,2013-01-07 14:32:00,
2013-01-07 15:39:00,73.9,48.7,30.19,SSW,193,1.0,2.0,41,0.00,,,0.00,287,Wunderground v.1.15,2013-01-07 14:39:00,
2013-01-07 15:44:00,74.1,48.9,30.19,SSW,193,1.0,1.0,41,0.00,,,0.00,272,Wunderground v.1.15,2013-01-07 14:44:00,
2013-01-07 15:50:00,74.0,48.8,30.19,SSW,193,0.0,0.0,41,0.00,,,0.00,258,Wunderground v.1.15,2013-01-07 14:50:00,
2013-01-07 15:56:00,74.2,49.0,30.20,SSW,193,0.0,1.0,41,0.00,,,0.00,241,Wunderground v.1.15,2013-01-07 14:56:00,
2013-01-07 16:02:00,74.0,49.4,30.20,SSW,193,1.0,2.0,42,0.00,,,0.00,229,Wunderground v.1.15,2013-01-07 15:02:00,
2013-01-07 16:08:00,73.6,49.7,30.20,SSW,193,1.0,3.0,43,0.00,,,0.00,209,Wunderground v.1.15,2013-01-07 15:08:00,
2013-01-07 16:14:00,72.8,49.6,30.20,SSW,192,2.0,4.0,44,0.00,,,0.00,195,Wunderground v.1.15,2013-01-07 15:14:00,
2013-01-07 16:20:00,71.7,49.2,30.20,SSW,192,3.0,3.0,45,0.00,,,0.00,176,Wunderground v.1.15,2013-01-07 15:20:00,
2013-01-07 16:26:00,71.0,49.7,30.20,SSW,193,3.0,3.0,47,0.00,,,0.00,156,Wunderground v.1.15,2013-01-07 15:26:00,
2013-01-07 16:32:00,70.6,50.0,30.20,SSW,193,2.0,3.0,48,0.00,,,0.00,139,Wunderground v.1.15,2013-01-07 15:32:00,
2013-01-07 16:39:00,70.3,50.2,30.19,SSW,193,1.0,3.0,49,0.00,,,0.00,118,Wunderground v.1.15,2013-01-07 15:39:00,
2013-01-07 16:46:00,70.3,49.7,30.20,SSW,192,0.0,1.0,48,0.00,,,0.00,97,Wunderground v.1.15,2013-01-07 15:46:00,
2013-01-07 16:52:00,70.1,49.5,30.20,SSW,193,0.0,0.0,48,0.00,,,0.00,77,Wunderground v.1.15,2013-01-07 15:52:00,
2013-01-07 16:59:00,69.9,49.9,30.20,SSW,192,0.0,0.0,49,0.00,,,0.00,62,Wunderground v.1.15,2013-01-07 15:59:00,
2013-01-07 17:06:00,69.4,48.9,30.20,SSW,193,0.0,0.0,48,0.00,,,0.00,44,Wunderground v.1.15,2013-01-07 16:06:00,
2013-01-07 17:12:00,68.9,48.4,30.20,SSW,193,0.0,0.0,48,0.00,,,0.00,32,Wunderground v.1.15,2013-01-07 16:12:00,
2013-01-07 17:18:00,68.4,47.9,30.20,SSW,193,0.0,0.0,48,0.00,,,0.00,23,Wunderground v.1.15,2013-01-07 16:18:00,
2013-01-07 17:26:00,67.4,48.6,30.20,SSW,192,0.0,0.0,51,0.00,,,0.00,12,Wunderground v.1.15,2013-01-07 16:26:00,
2013-01-07 17:32:00,66.2,48.0,30.20,SSW,193,0.0,0.0,52,0.00,,,0.00,9,Wunderground v.1.15,2013-01-07 16:32:00,
2013-01-07 17:39:00,65.2,47.6,30.20,SSW,193,0.0,0.0,53,0.00,,,0.00,5,Wunderground v.1.15,2013-01-07 16:39:00,
2013-01-07 17:44:00,64.5,47.5,30.21,SSW,193,1.0,2.0,54,0.00,,,0.00,0,Wunderground v.1.15,2013-01-07 16:44:00,
2013-01-07 17:50:00,63.6,47.6,30.21,SSW,193,1.0,1.0,56,0.00,,,0.00,0,Wunderground v.1.15,2013-01-07 16:50:00,
2013-01-07 17:56:00,62.8,47.8,30.21,SSW,193,1.0,1.0,58,0.00,,,0.00,0,Wunderground v.1.15,2013-01-07 16:56:00,
2013-01-07 18:02:00,62.0,47.5,30.21,SSW,193,1.0,1.0,59,0.00,,,0.00,0,Wunderground v.1.15,2013-01-07 17:02:00,
2013-01-07 18:08:00,61.3,47.3,30.21,SSW,192,1.0,2.0,60,0.00,,,0.00,0,Wunderground v.1.15,2013-01-07 17:08:00,
2013-01-07 18:14:00,60.7,46.7,30.22,SSW,192,2.0,2.0,60,0.00,,,0.00,0,Wunderground v.1.15,2013-01-07 17:14:00,
2013-01-07 18:20:00,60.3,46.8,30.22,SSW,193,1.0,1.0,61,0.00,,,0.00,0,Wunderground v.1.15,2013-01-07 17:20:00,
2013-01-07 18:26:00,60.1,46.6,30.22,SSW,192,0.0,1.0,61,0.00,,,0.00,0,Wunderground v.1.15,2013-01-07 17:26:00,
2013-01-07 18:32:00,60.1,46.6,30.22,SSW,192,1.0,1.0,61,0.00,,,0.00,0,Wunderground v.1.15,2013-01-07 17:32:00,
2013-01-07 18:38:00,60.0,46.5,30.22,SSW,192,0.0,1.0,61,0.00,,,0.00,0,Wunderground v.1.15,2013-01-07 17:38:00,
2013-01-07 18:46:00,59.6,45.7,30.22,SSW,193,0.0,0.0,60,0.00,,,0.00,0,Wunderground v.1.15,2013-01-07 17:46:00,
2013-01-07 18:52:00,59.5,46.0,30.22,SSW,192,0.0,0.0,61,0.00,,,0.00,0,Wunderground v.1.15,2013-01-07 17:52:00,
2013-01-07 19:00:00,59.2,46.2,30.22,SSW,193,1.0,1.0,62,0.00,,,0.00,0,Wunderground v.1.15,2013-01-07 18:00:00,
2013-01-07 19:06:00,59.1,46.1,30.22,SSW,193,2.0,3.0,62,0.00,,,0.00,0,Wunderground v.1.15,2013-01-07 18:06:00,
2013-01-07 19:12:00,58.9,45.9,30.22,SSW,193,1.0,1.0,62,0.00,,,0.00,0,Wunderground v.1.15,2013-01-07 18:12:00,
2013-01-07 19:20:00,59.3,45.8,30.22,SSW,193,0.0,2.0,61,0.00,,,0.00,0,Wunderground v.1.15,2013-01-07 18:20:00,
2013-01-07 19:26:00,59.7,45.3,30.22,SSW,193,1.0,3.0,59,0.00,,,0.00,0,Wunderground v.1.15,2013-01-07 18:26:00,
2013-01-07 19:32:00,59.9,45.1,30.22,SSW,192,2.0,3.0,58,0.00,,,0.00,0,Wunderground v.1.15,2013-01-07 18:32:00,
2013-01-07 19:40:00,59.9,44.6,30.23,SSW,192,3.0,3.0,57,0.00,,,0.00,0,Wunderground v.1.15,2013-01-07 18:40:00,
2013-01-07 19:46:00,59.6,43.9,30.23,SSW,193,3.0,4.0,56,0.00,,,0.00,0,Wunderground v.1.15,2013-01-07 18:46:00,
2013-01-07 19:52:00,59.5,43.3,30.23,SSW,193,3.0,5.0,55,0.00,,,0.00,0,Wunderground v.1.15,2013-01-07 18:52:00,
2013-01-07 19:59:00,58.7,44.8,30.23,SSW,193,4.0,6.0,60,0.00,,,0.00,0,Wunderground v.1.15,2013-01-07 18:59:00,
2013-01-07 20:06:00,58.8,44.9,30.23,SSW,193,4.0,5.0,60,0.00,,,0.00,0,Wunderground v.1.15,2013-01-07 19:06:00,
2013-01-07 20:12:00,58.5,44.7,30.23,SSW,193,4.0,4.0,60,0.00,,,0.00,0,Wunderground v.1.15,2013-01-07 19:12:00,
2013-01-07 20:18:00,57.7,44.8,30.23,SSW,193,3.0,4.0,62,0.00,,,0.00,0,Wunderground v.1.15,2013-01-07 19:18:00,
2013-01-07 20:24:00,57.0,44.9,30.23,SSW,193,4.0,4.0,64,0.00,,,0.00,0,Wunderground v.1.15,2013-01-07 19:24:00,
2013-01-07 20:30:00,56.9,44.8,30.23,SSW,193,4.0,4.0,64,0.00,,,0.00,0,Wunderground v.1.15,2013-01-07 19:30:00,
2013-01-07 20:36:00,56.8,45.2,30.23,SSW,193,1.0,4.0,65,0.00,,,0.00,0,Wunderground v.1.15,2013-01-07 19:36:00,
2013-01-07 20:42:00,56.7,45.1,30.24,SSW,193,0.0,0.0,65,0.00,,,0.00,0,Wunderground v.1.15,2013-01-07 19:42:00,
2013-01-07 20:49:00,56.3,44.7,30.24,SSW,192,1.0,2.0,65,0.00,,,0.00,0,Wunderground v.1.15,2013-01-07 19:49:00,
2013-01-07 20:56:00,56.0,44.8,30.24,SSW,192,1.0,2.0,66,0.00,,,0.00,0,Wunderground v.1.15,2013-01-07 19:56:00,
2013-01-07 21:02:00,56.0,44.8,30.24,SSW,192,1.0,1.0,66,0.00,,,0.00,0,Wunderground v.1.15,2013-01-07 20:02:00,
2013-01-07 21:08:00,55.9,44.3,30.24,SSW,192,0.0,1.0,65,0.00,,,0.00,0,Wunderground v.1.15,2013-01-07 20:08:00,
2013-01-07 21:14:00,55.7,44.1,30.25,SSW,192,0.0,0.0,65,0.00,,,0.00,0,Wunderground v.1.15,2013-01-07 20:14:00,
2013-01-07 21:20:00,55.6,44.4,30.25,SSW,193,0.0,0.0,66,0.00,,,0.00,0,Wunderground v.1.15,2013-01-07 20:20:00,
2013-01-07 21:26:00,55.6,44.4,30.25,SSW,192,0.0,0.0,66,0.00,,,0.00,0,Wunderground v.1.15,2013-01-07 20:26:00,
2013-01-07 21:32:00,55.5,43.9,30.25,SSW,193,0.0,0.0,65,0.00,,,0.00,0,Wunderground v.1.15,2013-01-07 20:32:00,
2013-01-07 21:34:00,55.6,44.0,30.25,SSW,193,0.0,0.0,65,0.00,,,0.00,0,Wunderground v.1.15,2013-01-07 20:34:00,
2013-01-07 21:40:00,55.5,43.9,30.25,SSW,192,0.0,0.0,65,0.00,,,0.00,0,Wunderground v.1.15,2013-01-07 20:40:00,
2013-01-07 21:46:00,55.6,44.4,30.25,SSW,193,0.0,0.0,66,0.00,,,0.00,0,Wunderground v.1.15,2013-01-07 20:46:00,
2013-01-07 21:52:00,55.5,44.3,30.25,SSW,193,0.0,0.0,66,0.00,,,0.00,0,Wunderground v.1.15,2013-01-07 20:52:00,
2013-01-07 21:59:00,55.4,44.2,30.25,SSW,192,0.0,0.0,66,0.00,,,0.00,0,Wunderground v.1.15,2013-01-07 20:59:00,
2013-01-07 22:04:00,55.1,43.9,30.25,SSW,193,0.0,0.0,66,0.00,,,0.00,0,Wunderground v.1.15,2013-01-07 21:04:00,
2013-01-07 22:10:00,54.9,44.1,30.26,SSW,193,0.0,0.0,67,0.00,,,0.00,0,Wunderground v.1.15,2013-01-07 21:10:00,
2013-01-07 22:16:00,54.6,43.9,30.26,SSW,192,0.0,0.0,67,0.00,,,0.00,0,Wunderground v.1.15,2013-01-07 21:16:00,
2013-01-07 22:22:00,54.4,44.1,30.26,SSW,192,0.0,0.0,68,0.00,,,0.00,0,Wunderground v.1.15,2013-01-07 21:22:00,
2013-01-07 22:30:00,54.1,43.8,30.26,SSW,193,1.0,2.0,68,0.00,,,0.00,0,Wunderground v.1.15,2013-01-07 21:30:00,
2013-01-07 22:36:00,53.9,44.0,30.26,SSW,193,3.0,3.0,69,0.00,,,0.00,0,Wunderground v.1.15,2013-01-07 21:36:00,
2013-01-07 22:42:00,53.4,43.9,30.26,SSW,193,3.0,3.0,70,0.00,,,0.00,0,Wunderground v.1.15,2013-01-07 21:42:00,
2013-01-07 22:49:00,52.7,43.2,30.26,SSW,193,2.0,3.0,70,0.00,,,0.00,0,Wunderground v.1.15,2013-01-07 21:49:00,
2013-01-07 22:54:00,52.2,43.4,30.26,SSW,192,3.0,3.0,72,0.00,,,0.00,0,Wunderground v.1.15,2013-01-07 21:54:00,
2013-01-07 23:00:00,51.6,43.2,30.27,SSW,193,3.0,3.0,73,0.00,,,0.00,0,Wunderground v.1.15,2013-01-07 22:00:00,
2013-01-07 23:06:00,50.9,42.9,30.27,SSW,192,3.0,3.0,74,0.00,,,0.00,0,Wunderground v.1.15,2013-01-07 22:06:00,
2013-01-07 23:12:00,50.5,42.9,30.27,SSW,192,3.0,3.0,75,0.00,,,0.00,0,Wunderground v.1.15,2013-01-07 22:12:00,
2013-01-07 23:20:00,50.3,43.7,30.27,SSW,193,3.0,3.0,78,0.00,,,0.00,0,Wunderground v.1.15,2013-01-07 22:20:00,
2013-01-07 23:26:00,50.5,44.2,30.28,SSW,192,1.0,3.0,79,0.00,,,0.00,0,Wunderground v.1.15,2013-01-07 22:26:00,
2013-01-07 23:32:00,50.6,44.7,30.28,SSW,193,0.0,0.0,80,0.00,,,0.00,0,Wunderground v.1.15,2013-01-07 22:32:00,
2013-01-07 23:40:00,50.7,45.4,30.28,SSW,192,0.0,0.0,82,0.00,,,0.00,0,Wunderground v.1.15,2013-01-07 22:40:00,
2013-01-07 23:46:00,50.6,45.3,30.28,SSW,193,0.0,0.0,82,0.00,,,0.00,0,Wunderground v.1.15,2013-01-07 22:46:00,
2013-01-07 23:52:00,50.5,45.5,30.28,SSW,192,0.0,0.0,83,0.00,,,0.00,0,Wunderground v.1.15,2013-01-07 22:52:00,
2013-01-07 23:58:00,50.5,45.8,30.28,SSW,193,0.0,0.0,84,0.00,,,0.00,0,Wunderground v.1.15,2013-01-07 22:58:00,